This is the latest recevied weather packets stored in our database for station/object VE3GSI. If no packets are shown the sender has not sent any weather packets the latest 10 day(s).
| Time | Temp. | Humidity | Pressure | Rain* | Wind** | Luminosity | Snow |
|---|---|---|---|---|---|---|---|
| 1777534565 | 6.11° C | 95% | 1005.5 hPa | 0 mm | - | - | - |
| 1777533964 | 6.11° C | 95% | 1005.4 hPa | 0 mm | - | - | - |
| 1777533364 | 6.11° C | 95% | 1005.3 hPa | 0 mm | - | - | - |
| 1777528564 | 6.67° C | 96% | 1005.3 hPa | 0.76 mm | - | - | - |
| 1777525565 | 6.67° C | 96% | 1005.5 hPa | 0.51 mm | - | - | - |
| 1777524364 | 6.67° C | 95% | 1005.4 hPa | 0.76 mm | - | - | - |
| 1777521964 | 6.67° C | 94% | 1005.4 hPa | 1.27 mm | - | - | - |
| 1777518965 | 7.22° C | 95% | 1005.5 hPa | 2.29 mm | - | - | - |
| 1777513564 | 8.89° C | 95% | 1006 hPa | 3.05 mm | - | - | - |
| 1777510564 | 10° C | 96% | 1005.8 hPa | 3.3 mm | - | - | - |
| 1777508764 | 10° C | 96% | 1005.6 hPa | 2.29 mm | - | - | - |
| 1777503964 | 10.56° C | 95% | 1005.4 hPa | 0 mm | - | - | - |
| 1777502168 | 10.56° C | 94% | 1006.4 hPa | 1.52 mm | - | - | - |
| 1777501565 | 10.56° C | 94% | 1006.5 hPa | 2.03 mm | - | - | - |
| 1777497365 | 11.11° C | 90% | 1006.4 hPa | 0.76 mm | - | - | - |
| 1777487165 | 12.78° C | 72% | 1007.8 hPa | 0 mm | - | - | - |
| 1777483565 | 13.89° C | 67% | 1008.6 hPa | 0 mm | - | - | - |
| 1777482965 | 13.89° C | 65% | 1008.9 hPa | 0 mm | - | - | - |
| 1777482365 | 14.44° C | 64% | 1008.7 hPa | 0 mm | - | - | - |
| 1777481165 | 14.44° C | 65% | 1009 hPa | 0 mm | - | - | - |
| 1777478165 | 13.33° C | 68% | 1009.7 hPa | 0 mm | - | - | - |
| 1777471565 | 12.22° C | 73% | 1010.4 hPa | 0 mm | - | - | - |
| 1777469165 | 11.67° C | 77% | 1010.8 hPa | 0 mm | - | - | - |
| 1777464968 | 11.11° C | 82% | 1010.9 hPa | 0 mm | - | - | - |
| 1777463165 | 10.56° C | 88% | 1010.9 hPa | 0 mm | - | - | - |
* Rain latest hour (hover to see other rain measurements)
** Current wind speed in m/s (hover to see current wind gust speed)